createdAt,value
2019-03-04T00:01:50.000Z,74.00
2019-03-04T00:04:18.431Z,74.30
2019-03-04T00:06:46.863Z,74.60
2019-03-04T00:09:15.294Z,75.20
2019-03-04T00:11:43.721Z,75.20
2019-03-04T00:14:12.148Z,75.80
2019-03-04T00:16:40.577Z,74.60
2019-03-04T00:19:09.035Z,74.60
2019-03-04T00:21:37.472Z,75.00
2019-03-04T00:24:05.900Z,75.50
2019-03-04T00:26:34.332Z,75.40
2019-03-04T00:29:02.760Z,75.30
2019-03-04T00:31:31.194Z,75.70
2019-03-04T00:33:59.620Z,75.50
2019-03-04T00:36:28.070Z,75.20
2019-03-04T00:38:56.491Z,75.50
2019-03-04T00:41:24.926Z,75.70
2019-03-04T00:43:53.343Z,75.80
2019-03-04T00:46:21.775Z,76.10
2019-03-04T00:48:50.204Z,75.30
2019-03-04T00:51:18.651Z,75.50
2019-03-04T00:53:47.074Z,75.20
2019-03-04T00:56:15.511Z,75.40
2019-03-04T00:58:43.937Z,75.80
2019-03-04T01:01:12.624Z,76.40
2019-03-04T01:03:41.049Z,76.50
2019-03-04T01:06:09.498Z,76.40
2019-03-04T01:08:37.928Z,77.10
2019-03-04T01:11:06.735Z,77.30
2019-03-04T01:13:36.704Z,77.20
2019-03-04T01:16:05.408Z,77.10
2019-03-04T01:18:33.827Z,77.10
2019-03-04T01:21:02.276Z,78.20
2019-03-04T01:23:30.704Z,77.40
2019-03-04T01:25:59.135Z,77.20
2019-03-04T01:28:27.569Z,77.40
2019-03-04T01:30:56.003Z,77.70
2019-03-04T01:33:24.435Z,77.70
2019-03-04T01:35:52.871Z,77.50
2019-03-04T01:38:21.317Z,77.40
2019-03-04T01:40:49.766Z,77.40
2019-03-04T01:43:18.195Z,77.10
2019-03-04T01:45:46.625Z,77.40
2019-03-04T01:48:15.039Z,77.30
2019-03-04T01:50:43.471Z,77.50
2019-03-04T01:53:11.897Z,77.60
2019-03-04T01:55:40.327Z,78.00
2019-03-04T01:58:08.751Z,77.90
2019-03-04T02:00:37.236Z,77.80
2019-03-04T02:03:05.682Z,78.10
2019-03-04T02:05:34.103Z,77.80
2019-03-04T02:08:02.534Z,77.90
2019-03-04T02:10:30.973Z,78.00
2019-03-04T02:12:59.409Z,78.00
2019-03-04T02:15:27.837Z,78.10
2019-03-04T02:17:56.262Z,78.30
2019-03-04T02:20:24.696Z,78.20
2019-03-04T02:22:53.131Z,78.10
2019-03-04T02:25:39.297Z,78.20
2019-03-04T02:28:07.716Z,78.30
2019-03-04T02:30:36.150Z,78.60
2019-03-04T02:33:04.576Z,78.50
2019-03-04T02:35:33.015Z,78.00
2019-03-04T02:38:01.517Z,78.10
2019-03-04T02:40:29.935Z,77.90
2019-03-04T02:42:58.373Z,78.00
2019-03-04T02:45:26.791Z,77.80
2019-03-04T02:47:55.228Z,77.70
2019-03-04T02:50:23.736Z,77.80
2019-03-04T02:52:52.170Z,77.80
2019-03-04T02:55:20.601Z,77.50
2019-03-04T02:57:49.058Z,77.40
2019-03-04T03:00:18.917Z,77.70
2019-03-04T03:02:47.378Z,78.00
2019-03-04T03:05:15.872Z,77.70
2019-03-04T03:07:44.321Z,77.70
2019-03-04T03:10:14.655Z,77.50
2019-03-04T03:13:02.443Z,77.20
2019-03-04T03:15:30.961Z,76.70
2019-03-04T03:17:59.484Z,76.70
2019-03-04T03:20:27.926Z,76.90
2019-03-04T03:22:56.366Z,77.10
2019-03-04T03:25:24.851Z,76.90
2019-03-04T03:27:53.317Z,77.40
2019-03-04T03:30:23.134Z,77.40
2019-03-04T03:32:51.622Z,77.20
2019-03-04T03:35:20.155Z,77.40
2019-03-04T03:37:48.597Z,77.10
2019-03-04T03:40:18.872Z,77.00
2019-03-04T03:42:47.318Z,76.60
2019-03-04T03:45:15.874Z,76.30
2019-03-04T03:47:44.312Z,76.10
2019-03-04T03:50:14.987Z,76.10
2019-03-04T03:52:43.480Z,76.10
2019-03-04T03:55:13.205Z,76.40
2019-03-04T03:57:41.818Z,76.10
2019-03-04T04:00:21.457Z,75.80
2019-03-04T04:02:49.979Z,75.60
2019-03-04T04:05:18.431Z,75.30
2019-03-04T04:07:46.934Z,75.80
2019-03-04T04:10:17.507Z,75.70
2019-03-04T04:12:45.950Z,76.10
2019-03-04T04:15:15.718Z,75.70
2019-03-04T04:17:44.175Z,75.80
2019-03-04T04:20:12.955Z,75.70
2019-03-04T04:22:41.392Z,75.80
2019-03-04T04:25:12.020Z,76.00
2019-03-04T04:27:40.470Z,76.30
2019-03-04T04:30:18.586Z,77.50
2019-03-04T04:32:47.035Z,76.80
2019-03-04T04:35:15.460Z,76.70
2019-03-04T04:37:43.901Z,77.10
2019-03-04T04:40:13.688Z,77.50
2019-03-04T04:42:42.128Z,78.20
2019-03-04T04:45:11.009Z,78.30
2019-03-04T04:47:41.085Z,78.90
2019-03-04T04:50:12.872Z,79.20
2019-03-04T04:52:41.307Z,79.40
2019-03-04T04:55:09.833Z,79.20
2019-03-04T04:57:38.282Z,79.80
2019-03-04T05:00:14.394Z,79.80
2019-03-04T05:02:42.831Z,79.90
2019-03-04T05:05:11.329Z,79.70
2019-03-04T05:07:39.850Z,79.60
2019-03-04T05:10:11.346Z,79.80
2019-03-04T05:12:39.802Z,79.40
2019-03-04T05:15:10.672Z,79.80
2019-03-04T05:17:39.902Z,79.80
2019-03-04T05:20:17.121Z,79.60
2019-03-04T05:22:45.566Z,79.30
2019-03-04T05:25:14.002Z,78.60
2019-03-04T05:27:42.445Z,78.30
2019-03-04T05:30:16.652Z,77.50
2019-03-04T05:32:45.081Z,75.50
2019-03-04T05:35:13.521Z,76.00
2019-03-04T05:37:41.969Z,74.80
2019-03-04T05:40:21.351Z,73.20
2019-03-04T05:42:49.823Z,73.00
2019-03-04T05:45:19.198Z,71.40
2019-03-04T05:47:47.647Z,70.70
2019-03-04T05:50:26.566Z,70.30
2019-03-04T05:52:55.035Z,69.20
2019-03-04T05:55:23.521Z,68.70
2019-03-04T05:57:51.961Z,68.40
2019-03-04T06:00:25.338Z,67.90
2019-03-04T06:03:00.106Z,67.40
2019-03-04T06:05:28.594Z,67.20
2019-03-04T06:08:04.667Z,68.10
2019-03-04T06:10:33.134Z,67.10
2019-03-04T06:13:01.573Z,66.80
2019-03-04T06:15:29.997Z,66.50
2019-03-04T06:17:58.449Z,66.60
2019-03-04T06:20:26.886Z,66.20
2019-03-04T06:22:55.325Z,66.40
2019-03-04T06:25:26.202Z,66.60
2019-03-04T06:27:54.639Z,66.00
2019-03-04T06:30:27.710Z,65.40
2019-03-04T06:32:56.170Z,65.80
2019-03-04T06:35:24.592Z,64.40
2019-03-04T06:37:53.041Z,64.70
2019-03-04T06:40:21.819Z,64.60
2019-03-04T06:42:50.274Z,64.30
2019-03-04T06:45:19.948Z,64.70
2019-03-04T06:47:48.388Z,64.30
2019-03-04T06:50:45.383Z,63.90
2019-03-04T06:53:16.840Z,63.20
2019-03-04T06:56:11.220Z,63.10
2019-03-04T06:59:02.468Z,63.00
2019-03-04T07:01:58.281Z,62.80
2019-03-04T07:04:46.092Z,62.60
2019-03-04T07:07:14.530Z,62.40
2019-03-04T07:09:42.978Z,62.80
2019-03-04T07:12:11.413Z,62.10
2019-03-04T07:14:39.856Z,62.20
2019-03-04T07:17:08.293Z,62.10
2019-03-04T07:19:36.743Z,62.40
2019-03-04T07:22:05.188Z,62.70
2019-03-04T07:24:33.625Z,62.50
2019-03-04T07:27:02.056Z,61.40
2019-03-04T07:29:30.523Z,61.40
2019-03-04T07:31:58.954Z,61.40
2019-03-04T07:34:27.390Z,61.10
2019-03-04T07:36:55.839Z,61.60
2019-03-04T07:39:24.287Z,61.00
2019-03-04T07:41:52.711Z,59.90
2019-03-04T07:44:21.169Z,59.30
2019-03-04T07:46:49.596Z,59.60
2019-03-04T07:49:18.036Z,59.50
2019-03-04T07:51:46.468Z,59.30
2019-03-04T07:54:14.981Z,59.00
2019-03-04T07:56:43.410Z,58.00
2019-03-04T07:59:11.841Z,57.80
2019-03-04T08:01:40.277Z,57.60
2019-03-04T08:04:08.740Z,57.50
2019-03-04T08:06:37.170Z,57.10
2019-03-04T08:09:14.473Z,56.10
2019-03-04T08:12:02.682Z,55.50
2019-03-04T08:14:31.120Z,55.40
2019-03-04T08:16:59.556Z,56.60
2019-03-04T08:19:27.994Z,55.60
2019-03-04T08:21:56.425Z,57.50
2019-03-04T08:24:24.867Z,58.80
2019-03-04T08:26:53.296Z,58.60
2019-03-04T08:29:21.756Z,59.40
2019-03-04T08:31:50.180Z,59.10
2019-03-04T08:34:18.644Z,59.00
2019-03-04T08:36:47.075Z,59.20
2019-03-04T08:39:15.528Z,59.50
2019-03-04T08:41:43.986Z,59.70
2019-03-04T08:44:12.514Z,60.60
2019-03-04T08:46:40.964Z,61.50
2019-03-04T08:49:09.490Z,62.00
2019-03-04T08:51:37.925Z,62.30
2019-03-04T08:54:06.365Z,62.60
2019-03-04T08:56:34.842Z,62.20
2019-03-04T08:59:03.295Z,61.70
2019-03-04T09:01:31.737Z,61.90
2019-03-04T09:04:00.177Z,62.10
2019-03-04T09:06:28.616Z,61.50
2019-03-04T09:08:57.060Z,61.40
2019-03-04T09:11:25.504Z,61.80
2019-03-04T09:13:53.947Z,62.40
2019-03-04T09:16:22.392Z,62.40
2019-03-04T09:18:50.853Z,62.00
2019-03-04T09:21:19.285Z,62.50
2019-03-04T09:23:49.929Z,62.10
2019-03-04T09:26:17.905Z,62.30
2019-03-04T09:28:46.415Z,62.50
2019-03-04T09:31:14.851Z,62.60
2019-03-04T09:33:43.287Z,62.70
2019-03-04T09:36:11.737Z,63.00
2019-03-04T09:38:40.173Z,62.90
2019-03-04T09:41:08.628Z,62.10
2019-03-04T09:43:37.105Z,62.10
2019-03-04T09:46:05.586Z,62.00
2019-03-04T09:48:34.030Z,61.90
2019-03-04T09:51:02.472Z,61.30
2019-03-04T09:53:39.121Z,60.70
2019-03-04T09:56:01.087Z,60.40
2019-03-04T09:58:29.504Z,61.40
2019-03-04T10:01:01.025Z,61.70
2019-03-04T10:03:35.262Z,61.40
2019-03-04T10:06:30.981Z,61.40
2019-03-04T10:09:14.525Z,60.30
2019-03-04T10:11:46.037Z,58.10
2019-03-04T10:14:46.003Z,56.30
2019-03-04T10:17:39.100Z,55.80
2019-03-04T10:20:38.313Z,54.30
2019-03-04T10:23:12.878Z,51.60
2019-03-04T10:25:53.060Z,49.10
2019-03-04T10:28:42.350Z,47.30
2019-03-04T10:31:31.664Z,45.70
2019-03-04T10:34:34.716Z,45.50
2019-03-04T10:37:20.631Z,45.20
2019-03-04T10:39:54.851Z,44.80
2019-03-04T10:42:43.760Z,45.40
2019-03-04T10:45:27.303Z,51.60
2019-03-04T10:47:55.731Z,49.00
2019-03-04T10:50:24.181Z,46.20
2019-03-04T10:52:52.611Z,45.80
2019-03-04T10:55:21.197Z,45.80
2019-03-04T10:57:49.619Z,45.60
2019-03-04T11:00:19.401Z,46.10
2019-03-04T11:02:49.323Z,46.30
2019-03-04T11:05:17.768Z,46.70
2019-03-04T11:07:46.198Z,46.50
2019-03-04T11:10:14.706Z,45.60
2019-03-04T11:12:43.150Z,44.10
2019-03-04T11:15:28.090Z,45.30
2019-03-04T11:17:56.513Z,45.60
2019-03-04T11:20:24.949Z,45.10
2019-03-04T11:22:53.380Z,44.70
2019-03-04T11:25:21.899Z,42.90
2019-03-04T11:27:50.577Z,43.10
2019-03-04T11:30:22.310Z,42.20
2019-03-04T11:32:51.751Z,42.60
2019-03-04T11:35:20.203Z,42.20
2019-03-04T11:37:48.630Z,42.60
2019-03-04T11:40:22.120Z,42.30
2019-03-04T11:42:50.697Z,42.50
2019-03-04T11:45:19.360Z,41.30
2019-03-04T11:47:47.810Z,41.20
2019-03-04T11:50:17.190Z,39.60
2019-03-04T11:52:45.833Z,40.30
2019-03-04T11:55:20.261Z,38.50
2019-03-04T11:57:48.705Z,37.50
2019-03-04T12:00:24.092Z,37.70
2019-03-04T12:02:52.525Z,37.90
2019-03-04T12:05:20.961Z,38.50
2019-03-04T12:07:49.395Z,38.60
2019-03-04T12:10:18.460Z,38.20
2019-03-04T12:12:46.886Z,38.50
2019-03-04T12:15:17.863Z,36.10
2019-03-04T12:17:46.304Z,36.00
2019-03-04T12:20:15.928Z,37.40
2019-03-04T12:22:44.732Z,37.90
2019-03-04T12:25:21.135Z,37.70
2019-03-04T12:27:49.644Z,37.20
2019-03-04T12:30:23.488Z,37.20
2019-03-04T12:32:52.759Z,37.00
2019-03-04T12:35:21.266Z,36.50
2019-03-04T12:37:49.688Z,36.30
2019-03-04T12:40:39.017Z,36.80
2019-03-04T12:43:07.444Z,37.50
2019-03-04T12:45:35.907Z,37.90
2019-03-04T12:48:23.679Z,39.00
2019-03-04T12:50:52.113Z,39.20
2019-03-04T12:53:20.535Z,39.90
2019-03-04T12:55:48.973Z,40.70
2019-03-04T12:58:17.403Z,41.70
2019-03-04T13:00:45.831Z,41.50
2019-03-04T13:03:21.544Z,41.50
2019-03-04T13:05:49.977Z,41.60
2019-03-04T13:08:18.403Z,41.90
2019-03-04T13:10:46.829Z,42.00
2019-03-04T13:13:26.075Z,41.70
2019-03-04T13:15:54.509Z,41.50
2019-03-04T13:18:23.178Z,41.80
2019-03-04T13:20:51.617Z,42.60
2019-03-04T13:23:39.400Z,43.40
2019-03-04T13:26:07.843Z,43.90
2019-03-04T13:28:36.262Z,43.90
2019-03-04T13:31:05.813Z,44.80
2019-03-04T13:33:34.506Z,45.60
2019-03-04T13:36:03.016Z,46.40
2019-03-04T13:38:31.450Z,47.30
2019-03-04T13:40:59.893Z,48.50
2019-03-04T13:43:28.339Z,49.10
2019-03-04T13:45:56.755Z,50.20
2019-03-04T13:48:25.187Z,51.70
2019-03-04T13:50:53.618Z,52.30
2019-03-04T13:53:22.043Z,53.30
2019-03-04T13:55:50.484Z,54.20
2019-03-04T13:58:18.923Z,54.10
2019-03-04T14:00:47.429Z,55.10
2019-03-04T14:03:16.126Z,55.50
2019-03-04T14:05:44.769Z,54.80
2019-03-04T14:08:13.261Z,54.50
2019-03-04T14:10:44.763Z,52.80
2019-03-04T14:13:32.527Z,51.00
2019-03-04T14:16:00.964Z,51.50
2019-03-04T14:18:29.406Z,51.40
2019-03-04T14:20:57.839Z,51.20
2019-03-04T14:23:26.278Z,52.00
2019-03-04T14:25:54.695Z,51.30
2019-03-04T14:28:23.139Z,51.70
2019-03-04T14:30:51.560Z,51.80
2019-03-04T14:33:20.006Z,51.90
2019-03-04T14:35:48.444Z,52.20
2019-03-04T14:38:16.886Z,52.50
2019-03-04T14:40:45.303Z,52.20
2019-03-04T14:43:13.743Z,52.20
2019-03-04T14:45:42.163Z,52.10
2019-03-04T14:48:10.611Z,51.70
2019-03-04T14:50:39.036Z,50.80
2019-03-04T14:53:07.472Z,50.90
2019-03-04T14:55:56.787Z,51.20
2019-03-04T14:58:25.225Z,48.90
2019-03-04T15:00:53.647Z,48.60
2019-03-04T15:03:23.971Z,48.40
2019-03-04T15:05:52.492Z,48.10
2019-03-04T15:08:20.939Z,47.60
2019-03-04T15:10:49.435Z,47.50
2019-03-04T15:13:21.290Z,47.10
2019-03-04T15:15:49.713Z,47.10
2019-03-04T15:18:18.158Z,47.10
2019-03-04T15:20:46.578Z,47.20
2019-03-04T15:23:15.014Z,46.20
2019-03-04T15:25:44.475Z,45.80
2019-03-04T15:28:15.323Z,45.60
2019-03-04T15:30:45.792Z,45.80
2019-03-04T15:33:18.151Z,46.10
2019-03-04T15:35:44.621Z,46.30
2019-03-04T15:38:13.046Z,46.20
2019-03-04T15:40:41.468Z,46.40
2019-03-04T15:43:09.900Z,45.90
2019-03-04T15:45:40.050Z,46.30
2019-03-04T15:48:08.552Z,45.90
2019-03-04T15:50:36.970Z,46.00
2019-03-04T15:53:05.403Z,46.00
2019-03-04T15:55:33.843Z,46.50
2019-03-04T15:58:02.284Z,45.90
2019-03-04T16:00:32.441Z,46.00
2019-03-04T16:03:00.929Z,45.20
2019-03-04T16:05:29.360Z,44.20
2019-03-04T16:08:06.756Z,43.70
2019-03-04T16:10:34.784Z,43.30
2019-03-04T16:13:03.471Z,43.30
2019-03-04T16:15:32.037Z,42.90
2019-03-04T16:18:00.472Z,42.50
2019-03-04T16:20:48.252Z,42.80
2019-03-04T16:23:16.714Z,43.90
2019-03-04T16:25:45.204Z,44.00
2019-03-04T16:28:16.275Z,44.80
2019-03-04T16:30:44.964Z,45.60
2019-03-04T16:33:13.436Z,45.70
2019-03-04T16:35:41.860Z,45.70
2019-03-04T16:38:10.296Z,46.20
2019-03-04T16:40:38.719Z,46.70
2019-03-04T16:43:07.139Z,47.00
2019-03-04T16:45:35.581Z,47.10
2019-03-04T16:48:04.525Z,47.50
2019-03-04T16:50:38.613Z,47.70
2019-03-04T16:53:12.925Z,48.00
2019-03-04T16:55:41.399Z,50.00
2019-03-04T16:58:09.824Z,61.70
2019-03-04T17:00:38.273Z,78.00
2019-03-04T17:03:06.714Z,79.50
2019-03-04T17:05:35.139Z,79.30
2019-03-04T17:08:03.731Z,78.90
2019-03-04T17:10:32.240Z,75.90
2019-03-04T17:13:00.737Z,77.60
2019-03-04T17:15:29.185Z,77.40
2019-03-04T17:17:57.595Z,76.80
2019-03-04T17:20:26.211Z,77.10
2019-03-04T17:22:54.633Z,77.40
2019-03-04T17:25:24.187Z,76.90
2019-03-04T17:27:52.700Z,76.70
2019-03-04T17:30:25.227Z,76.50
2019-03-04T17:32:53.719Z,76.90
2019-03-04T17:35:24.150Z,76.00
2019-03-04T17:37:52.607Z,75.30
2019-03-04T17:40:22.889Z,74.90
2019-03-04T17:42:51.385Z,75.30
2019-03-04T17:45:24.481Z,75.10
2019-03-04T17:47:53.305Z,75.10
2019-03-04T17:50:27.513Z,75.40
2019-03-04T17:52:55.957Z,75.00
2019-03-04T17:55:24.450Z,75.20
2019-03-04T17:57:52.984Z,74.90
2019-03-04T18:00:21.412Z,74.50
2019-03-04T18:02:49.836Z,74.30
2019-03-04T18:05:18.282Z,74.20
2019-03-04T18:07:46.712Z,73.70
2019-03-04T18:10:16.480Z,73.80
2019-03-04T18:12:45.338Z,74.80
2019-03-04T18:15:22.242Z,77.70
2019-03-04T18:17:50.672Z,88.30
2019-03-04T18:20:19.168Z,91.80
2019-03-04T18:22:47.587Z,92.60
2019-03-04T18:25:30.803Z,93.20
2019-03-04T18:28:20.203Z,93.10
2019-03-04T18:31:09.692Z,93.40
2019-03-04T18:34:02.641Z,93.30
2019-03-04T18:36:40.280Z,93.50
2019-03-04T18:39:15.604Z,92.90
2019-03-04T18:41:59.758Z,93.10
2019-03-04T18:44:41.141Z,93.10
2019-03-04T18:47:18.637Z,92.20
2019-03-04T18:49:47.978Z,92.40
2019-03-04T18:52:16.498Z,91.90
2019-03-04T18:54:45.406Z,92.10
2019-03-04T18:57:14.241Z,91.60
2019-03-04T18:59:42.858Z,91.90
2019-03-04T19:02:11.440Z,91.40
2019-03-04T19:04:40.152Z,91.60
2019-03-04T19:07:09.121Z,91.50
2019-03-04T19:09:37.710Z,91.10
2019-03-04T19:12:06.403Z,91.20
2019-03-04T19:14:35.132Z,91.30
2019-03-04T19:17:03.985Z,90.90
2019-03-04T19:19:32.825Z,91.10
2019-03-04T19:22:02.085Z,90.90
2019-03-04T19:24:33.898Z,91.00
2019-03-04T19:27:10.131Z,90.80
2019-03-04T19:29:55.303Z,90.90
2019-03-04T19:35:16.058Z,90.90
2019-03-04T19:37:44.827Z,91.20
2019-03-04T19:40:15.444Z,90.90
2019-03-04T19:45:32.188Z,90.50
2019-03-04T19:48:00.705Z,90.80
2019-03-04T19:50:29.150Z,90.60
2019-03-04T19:52:57.638Z,90.30
2019-03-04T19:55:26.086Z,90.60
2019-03-04T19:57:54.515Z,90.70
2019-03-04T20:00:25.995Z,90.70
2019-03-04T20:02:54.691Z,90.90
2019-03-04T20:05:23.757Z,91.10
2019-03-04T20:07:52.332Z,91.30
2019-03-04T20:10:21.286Z,91.10
2019-03-04T20:12:50.009Z,90.90
2019-03-04T20:15:27.490Z,90.90
2019-03-04T20:17:56.691Z,90.60
2019-03-04T20:20:25.398Z,90.60
2019-03-04T20:22:53.879Z,90.50
2019-03-04T20:25:23.066Z,90.30
2019-03-04T20:27:51.491Z,89.80
2019-03-04T20:30:25.599Z,89.70
2019-03-04T20:32:54.232Z,89.50
2019-03-04T20:35:22.828Z,88.70
2019-03-04T20:37:57.276Z,88.60
2019-03-04T20:40:25.777Z,88.10
2019-03-04T20:42:54.200Z,87.90
2019-03-04T20:45:23.863Z,87.30
2019-03-04T20:47:52.269Z,87.10
2019-03-04T20:50:22.810Z,86.00
2019-03-04T20:52:51.222Z,86.20
2019-03-04T20:55:19.728Z,86.00
2019-03-04T20:57:48.227Z,85.70
2019-03-04T21:00:24.162Z,85.80
2019-03-04T21:02:52.591Z,85.70
2019-03-04T21:05:26.862Z,85.40
2019-03-04T21:07:55.349Z,85.50
2019-03-04T21:10:23.854Z,84.80
2019-03-04T21:12:53.956Z,84.80
2019-03-04T21:34:43.586Z,83.40
2019-03-04T21:37:23.883Z,83.30
2019-03-04T21:40:24.943Z,82.90
2019-03-04T21:43:13.771Z,83.00
2019-03-04T21:46:05.391Z,83.20
2019-03-04T21:48:44.741Z,83.60
2019-03-04T21:51:45.104Z,83.10
2019-03-04T21:54:21.403Z,83.20
2019-03-04T21:57:07.739Z,83.10
2019-03-04T21:59:45.259Z,83.10
2019-03-04T22:02:41.376Z,82.90
2019-03-04T22:05:21.743Z,82.90
2019-03-04T22:07:52.248Z,82.80
2019-03-04T22:10:34.109Z,82.90
2019-03-04T22:13:07.490Z,82.80
2019-03-04T22:15:35.983Z,83.10
2019-03-04T22:18:05.231Z,82.50
2019-03-04T22:20:41.117Z,82.50
2019-03-04T22:23:33.917Z,82.60
2019-03-04T22:26:11.354Z,82.30
2019-03-04T22:28:41.140Z,82.30
2019-03-04T22:31:19.547Z,82.10
2019-03-04T22:33:57.705Z,82.10
2019-03-04T22:36:45.968Z,82.10
2019-03-04T22:39:25.384Z,81.50
2019-03-04T22:41:57.347Z,81.50
2019-03-04T22:44:32.211Z,81.50
2019-03-04T22:47:09.678Z,81.50
2019-03-04T22:49:50.443Z,81.70
2019-03-04T22:52:24.717Z,81.70
2019-03-04T22:54:53.419Z,81.80
2019-03-04T22:57:29.714Z,82.30
2019-03-04T23:00:08.051Z,82.10
2019-03-04T23:02:54.638Z,81.90
2019-03-04T23:05:20.626Z,81.80
2019-03-04T23:07:59.064Z,82.10
2019-03-04T23:10:34.277Z,81.80
2019-03-04T23:13:17.750Z,82.20
2019-03-04T23:16:20.590Z,82.10
2019-03-04T23:18:52.068Z,82.30
2019-03-04T23:21:30.210Z,82.30
2019-03-04T23:24:03.693Z,82.20
2019-03-04T23:26:38.357Z,83.50
2019-03-04T23:29:12.553Z,82.80
2019-03-04T23:31:49.702Z,83.40
2019-03-04T23:34:20.920Z,83.10
2019-03-04T23:36:54.062Z,82.60
2019-03-04T23:39:27.449Z,82.90
2019-03-04T23:41:57.216Z,83.90
2019-03-04T23:44:27.298Z,83.00
2019-03-04T23:46:59.078Z,83.10
2019-03-04T23:49:29.181Z,82.90
2019-03-04T23:52:04.234Z,83.10
2019-03-04T23:54:32.734Z,83.20
2019-03-04T23:57:04.356Z,82.50
2019-03-04T23:59:38.572Z,82.60
